Time;durP1;ratioP1;P1;durP2;ratioP2;P2;SDS_P1;SDS_P2;PMS_P1;PMS_P2;Temp;Humidity;BMP_temperature;BMP_pressure;BME280_temperature;BME280_humidity;BME280_pressure;Samples;Min_cycle;Max_cycle;Signal;HPM_P1;HPM_P2
2022/09/07 00:00:48;;;;;;;4.93;3.75;;;16.60;99.90;;;;;;5076659;28;20027;-33
2022/09/07 00:03:14;;;;;;;4.40;3.67;;;16.60;99.90;;;;;;5076060;28;20165;-33
2022/09/07 00:05:44;;;;;;;5.05;4.13;;;16.70;99.90;;;;;;5078620;28;20032;-35
2022/09/07 00:08:10;;;;;;;6.28;3.92;;;16.70;99.90;;;;;;5077937;28;20507;-35
2022/09/07 00:10:36;;;;;;;6.47;4.22;;;16.60;99.90;;;;;;5075845;28;20019;-32
2022/09/07 00:13:03;;;;;;;6.97;3.75;;;16.70;99.90;;;;;;5076400;28;20080;-32
2022/09/07 00:15:28;;;;;;;4.75;3.97;;;16.70;99.90;;;;;;5059787;28;20067;-31
2022/09/07 00:17:54;;;;;;;6.35;3.60;;;16.60;99.90;;;;;;5078561;28;20115;-34
2022/09/07 00:20:19;;;;;;;6.07;3.97;;;16.60;99.90;;;;;;5077059;28;20482;-34
2022/09/07 00:22:45;;;;;;;9.65;4.35;;;16.70;99.90;;;;;;5076136;28;20012;-35
2022/09/07 00:25:11;;;;;;;5.15;3.72;;;16.80;99.90;;;;;;5075317;28;20055;-32
2022/09/07 00:27:38;;;;;;;6.32;3.80;;;16.80;99.90;;;;;;5075592;28;20040;-34
2022/09/07 00:30:05;;;;;;;6.07;3.90;;;16.80;99.90;;;;;;5069836;28;20033;-31
2022/09/07 00:32:30;;;;;;;7.63;4.30;;;16.80;99.90;;;;;;5073736;28;20089;-33
2022/09/07 00:34:56;;;;;;;7.07;4.03;;;16.80;99.90;;;;;;5077705;28;20527;-32
2022/09/07 00:37:22;;;;;;;6.18;4.00;;;16.80;99.90;;;;;;5076883;28;21929;-33
2022/09/07 00:39:48;;;;;;;7.82;4.30;;;16.90;99.90;;;;;;5074943;28;20032;-33
2022/09/07 00:42:17;;;;;;;6.10;4.15;;;16.90;99.90;;;;;;5076357;28;20028;-30
2022/09/07 00:44:43;;;;;;;10.65;4.18;;;16.90;99.90;;;;;;5076437;28;20028;-34
2022/09/07 00:47:19;;;;;;;6.88;4.43;;;16.90;99.90;;;;;;5078680;28;20039;-31
2022/09/07 01:54:12;;;;;;;6.40;4.40;;;17.30;99.90;;;;;;5056547;28;20090;-32
2022/09/07 01:56:42;;;;;;;6.45;3.97;;;17.40;99.90;;;;;;5057367;28;20037;-31
2022/09/07 01:59:29;;;;;;;5.78;4.00;;;17.30;99.90;;;;;;5059574;28;20187;-32
2022/09/07 02:02:22;;;;;;;5.10;3.63;;;17.30;99.90;;;;;;5058493;28;20033;-32
2022/09/07 02:04:59;;;;;;;4.53;4.03;;;17.30;99.90;;;;;;5058087;28;20388;-32
2022/09/07 02:07:56;;;;;;;7.63;3.67;;;17.30;99.90;;;;;;5055128;28;20501;-31
2022/09/07 02:10:31;;;;;;;7.13;4.25;;;17.20;99.90;;;;;;5058838;28;20063;-32
2022/09/07 02:13:02;;;;;;;8.30;4.65;;;17.10;99.90;;;;;;5059635;28;20032;-32
2022/09/07 02:16:05;;;;;;;5.78;4.57;;;17.10;99.90;;;;;;5059832;28;20047;-32
2022/09/07 02:18:52;;;;;;;5.90;3.88;;;17.00;99.90;;;;;;5059616;28;20390;-31
2022/09/07 02:21:22;;;;;;;5.03;4.43;;;16.80;99.90;;;;;;5056764;28;20051;-31
2022/09/07 02:23:54;;;;;;;7.32;4.53;;;16.80;99.90;;;;;;5058604;28;20108;-33
2022/09/07 02:26:22;;;;;;;6.32;4.32;;;16.70;99.90;;;;;;5059458;28;20029;-32
2022/09/07 02:28:48;;;;;;;7.65;4.53;;;16.70;99.90;;;;;;5058819;28;20029;-35
2022/09/07 02:31:14;;;;;;;7.32;5.30;;;16.70;99.90;;;;;;5056780;28;20039;-37
2022/09/07 02:33:41;;;;;;;8.95;5.15;;;16.70;99.90;;;;;;5055706;28;20028;-32
2022/09/07 02:36:08;;;;;;;5.93;4.18;;;16.70;99.90;;;;;;5059300;28;20125;-30
2022/09/07 02:38:34;;;;;;;5.78;4.60;;;16.70;99.90;;;;;;5057895;28;20040;-34
2022/09/07 02:41:02;;;;;;;7.88;4.55;;;16.70;99.90;;;;;;5056172;28;20474;-33
2022/09/07 02:43:30;;;;;;;5.93;4.22;;;16.70;99.90;;;;;;5053233;28;20073;-32
2022/09/07 02:46:14;;;;;;;7.90;4.40;;;16.70;99.90;;;;;;5057159;28;20086;-33
2022/09/07 02:49:11;;;;;;;8.63;5.07;;;16.60;99.90;;;;;;5058013;28;20066;-33
2022/09/07 02:51:58;;;;;;;10.00;4.22;;;16.70;99.90;;;;;;5034611;28;20371;-32
2022/09/07 02:54:32;;;;;;;5.93;3.85;;;16.70;99.90;;;;;;5063859;28;21649;-32
2022/09/07 02:57:18;;;;;;;5.20;4.07;;;16.80;99.90;;;;;;5075647;28;20107;-36
2022/09/07 02:59:43;;;;;;;9.38;4.32;;;16.80;99.90;;;;;;5078825;28;20064;-35
2022/09/07 03:11:47;;;;;;;4.82;3.20;;;16.80;99.90;;;;;;5074914;28;20051;-32
2022/09/07 03:14:14;;;;;;;6.13;3.78;;;16.90;99.90;;;;;;5080956;28;20073;-31
2022/09/07 03:16:40;;;;;;;6.53;4.60;;;16.90;99.90;;;;;;5077324;28;20020;-31
2022/09/07 03:19:06;;;;;;;6.30;4.20;;;17.00;99.90;;;;;;5079337;28;20054;-31
2022/09/07 03:21:32;;;;;;;6.07;3.75;;;17.00;99.90;;;;;;5078643;28;20035;-32
2022/09/07 03:23:57;;;;;;;5.40;3.95;;;17.00;99.90;;;;;;5079431;28;20071;-34
2022/09/07 03:26:24;;;;;;;5.32;3.92;;;17.00;99.90;;;;;;5060932;28;20123;-32
2022/09/07 03:28:50;;;;;;;5.93;4.03;;;16.90;99.90;;;;;;5079120;28;20370;-34
2022/09/07 03:31:16;;;;;;;6.78;3.92;;;16.90;99.90;;;;;;5079971;28;20461;-32
2022/09/07 03:33:42;;;;;;;8.13;4.45;;;16.80;99.90;;;;;;5079960;28;20052;-31
2022/09/07 03:36:07;;;;;;;9.63;4.53;;;16.60;99.90;;;;;;5076674;28;20515;-31
2022/09/07 03:38:33;;;;;;;8.88;5.25;;;16.50;99.90;;;;;;5076588;28;20515;-33
2022/09/07 03:41:01;;;;;;;5.82;4.82;;;16.50;99.90;;;;;;5077781;28;20476;-36
2022/09/07 03:43:28;;;;;;;9.38;5.18;;;16.40;99.90;;;;;;5078609;28;20024;-34
2022/09/07 03:46:02;;;;;;;8.15;5.20;;;16.40;99.90;;;;;;5079959;28;20039;-31
2022/09/07 03:48:33;;;;;;;6.78;4.78;;;16.50;99.90;;;;;;5077420;28;20044;-31
2022/09/07 03:51:01;;;;;;;8.82;4.40;;;16.50;99.90;;;;;;5078141;28;20080;-33
2022/09/07 03:53:30;;;;;;;5.55;5.00;;;16.60;99.90;;;;;;5061480;28;20139;-32
2022/09/07 03:56:04;;;;;;;6.88;4.28;;;16.70;99.90;;;;;;5076050;28;20476;-32
2022/09/07 03:58:32;;;;;;;5.32;4.10;;;16.70;99.90;;;;;;5059544;28;20024;-33
2022/09/07 04:00:59;;;;;;;5.60;4.20;;;16.80;99.90;;;;;;5063540;28;20119;-31
2022/09/07 04:03:25;;;;;;;5.85;4.22;;;16.80;99.90;;;;;;5080516;28;20770;-31
2022/09/07 04:05:51;;;;;;;5.43;4.20;;;16.80;99.90;;;;;;5077457;28;20051;-34
2022/09/07 04:08:17;;;;;;;7.75;4.30;;;16.80;99.90;;;;;;5077374;28;20032;-30
2022/09/07 04:10:43;;;;;;;9.20;4.38;;;16.80;99.90;;;;;;5077081;28;20103;-31
2022/09/07 04:13:09;;;;;;;5.28;4.10;;;16.80;99.90;;;;;;5079112;28;20122;-34
2022/09/07 04:15:34;;;;;;;7.50;4.43;;;16.90;99.90;;;;;;5076276;28;20106;-31
2022/09/07 04:18:01;;;;;;;6.72;4.13;;;16.90;99.90;;;;;;5078459;28;20043;-32
2022/09/07 04:20:28;;;;;;;5.95;4.13;;;16.90;99.90;;;;;;5076942;28;20024;-31
2022/09/07 04:22:54;;;;;;;4.28;3.85;;;16.90;99.90;;;;;;5079544;28;20020;-32
2022/09/07 04:25:19;;;;;;;5.82;4.05;;;16.80;99.90;;;;;;5074575;28;20063;-34
2022/09/07 04:27:45;;;;;;;4.75;4.18;;;16.80;99.90;;;;;;5075325;28;20050;-32
2022/09/07 04:30:12;;;;;;;7.30;4.25;;;16.70;99.90;;;;;;5077869;28;20485;-33
2022/09/07 04:32:38;;;;;;;6.03;4.10;;;16.70;99.90;;;;;;5075990;28;22008;-34
2022/09/07 04:35:04;;;;;;;7.07;4.35;;;16.70;99.90;;;;;;5077581;28;20054;-31
2022/09/07 04:37:30;;;;;;;10.10;4.20;;;16.70;99.90;;;;;;5075108;28;20020;-31
2022/09/07 04:39:55;;;;;;;7.53;4.22;;;16.70;99.90;;;;;;5077282;28;20024;-34
2022/09/07 04:42:21;;;;;;;7.47;4.88;;;16.70;99.90;;;;;;5060223;28;20024;-36
2022/09/07 04:44:50;;;;;;;13.55;4.53;;;16.80;99.90;;;;;;5079328;28;20032;-36
2022/09/07 04:47:16;;;;;;;6.63;4.47;;;16.80;99.90;;;;;;5080778;28;20058;-34
2022/09/07 04:49:42;;;;;;;8.30;5.45;;;16.80;99.90;;;;;;5082722;28;20024;-31
2022/09/07 04:52:08;;;;;;;7.53;4.53;;;16.80;99.90;;;;;;5081303;28;20051;-35
2022/09/07 04:54:33;;;;;;;9.57;4.80;;;16.80;99.90;;;;;;5080602;28;20044;-31
2022/09/07 04:56:59;;;;;;;15.02;5.03;;;16.90;99.90;;;;;;5083183;28;20119;-34
2022/09/07 04:59:25;;;;;;;10.18;5.35;;;16.80;99.90;;;;;;5079107;28;20580;-32
2022/09/07 05:01:50;;;;;;;14.38;6.00;;;16.80;99.90;;;;;;5083102;28;20119;-31
2022/09/07 05:04:16;;;;;;;10.18;6.18;;;16.90;99.90;;;;;;5067582;28;20036;-31
2022/09/07 05:06:42;;;;;;;8.52;3.80;;;16.80;99.90;;;;;;5087463;28;20032;-32
2022/09/07 05:09:12;;;;;;;4.80;2.50;;;16.80;99.90;;;;;;5089083;28;20625;-31
2022/09/07 05:11:37;;;;;;;5.82;2.60;;;16.90;99.90;;;;;;5088097;28;20020;-33
2022/09/07 05:14:03;;;;;;;7.40;2.35;;;16.90;99.90;;;;;;5084728;28;20370;-33
2022/09/07 05:16:30;;;;;;;5.10;2.17;;;16.90;99.90;;;;;;5068006;28;20081;-31
2022/09/07 05:19:02;;;;;;;5.45;2.50;;;17.00;99.90;;;;;;5064648;28;20043;-32
2022/09/07 05:21:30;;;;;;;7.20;2.45;;;17.00;99.90;;;;;;5082632;28;20519;-33
2022/09/07 05:23:57;;;;;;;3.17;2.42;;;17.10;99.90;;;;;;5085685;28;20028;-31
2022/09/07 05:26:25;;;;;;;4.90;3.85;;;17.10;99.90;;;;;;5084320;28;20043;-32
2022/09/07 05:28:51;;;;;;;5.57;3.17;;;17.10;99.90;;;;;;5086283;28;20088;-32
2022/09/07 05:31:20;;;;;;;4.68;2.60;;;17.20;99.90;;;;;;5080305;28;20032;-31
2022/09/07 05:33:47;;;;;;;6.60;2.80;;;17.20;99.90;;;;;;5083988;28;20023;-33
2022/09/07 05:36:13;;;;;;;4.85;2.70;;;17.20;99.90;;;;;;5084496;28;20024;-34
2022/09/07 05:38:39;;;;;;;3.78;2.90;;;17.20;99.90;;;;;;5083400;28;20032;-34
2022/09/07 05:41:16;;;;;;;6.50;2.92;;;17.20;99.90;;;;;;5083916;28;20024;-32
2022/09/07 05:43:43;;;;;;;4.63;2.67;;;17.30;99.90;;;;;;5065715;28;20066;-34
2022/09/07 05:46:09;;;;;;;7.47;3.58;;;17.30;99.90;;;;;;5085398;28;20032;-31
2022/09/07 05:48:36;;;;;;;7.07;3.30;;;17.20;99.90;;;;;;5085754;28;20430;-32
2022/09/07 05:51:02;;;;;;;7.32;3.75;;;17.10;99.90;;;;;;5083149;28;20070;-31
2022/09/07 05:53:28;;;;;;;7.13;2.90;;;17.10;99.90;;;;;;5085189;28;20073;-31
2022/09/07 05:55:58;;;;;;;9.50;3.45;;;17.10;99.90;;;;;;5084684;28;20044;-31
2022/09/07 05:58:25;;;;;;;6.80;3.20;;;17.10;99.90;;;;;;5083481;28;20103;-31
2022/09/07 06:00:51;;;;;;;7.05;3.42;;;17.20;99.90;;;;;;5085047;28;20059;-34
2022/09/07 06:03:16;;;;;;;8.55;3.70;;;17.20;99.90;;;;;;5084884;28;20453;-33
2022/09/07 06:05:42;;;;;;;5.55;2.90;;;17.20;99.90;;;;;;5085261;28;20626;-31
2022/09/07 06:08:07;;;;;;;6.15;3.00;;;17.20;99.90;;;;;;5063792;28;20432;-31
2022/09/07 06:10:36;;;;;;;9.20;3.90;;;17.20;99.90;;;;;;5076815;28;20032;-32
2022/09/07 06:13:03;;;;;;;4.82;3.22;;;17.20;99.90;;;;;;5085990;28;20103;-31
2022/09/07 06:15:31;;;;;;;7.40;3.63;;;17.20;99.90;;;;;;5083113;28;20081;-33
2022/09/07 06:17:57;;;;;;;6.63;3.42;;;17.20;99.90;;;;;;5084251;28;20050;-31
2022/09/07 06:20:23;;;;;;;7.32;3.53;;;17.20;99.90;;;;;;5081967;28;20032;-35
2022/09/07 06:22:49;;;;;;;4.65;3.13;;;17.30;99.90;;;;;;5080884;28;21235;-31
2022/09/07 06:25:14;;;;;;;7.63;3.55;;;17.30;99.90;;;;;;5082867;28;20086;-32
2022/09/07 06:27:40;;;;;;;6.90;3.17;;;17.30;99.90;;;;;;5083287;28;20369;-31
2022/09/07 06:30:06;;;;;;;5.03;3.63;;;17.40;99.90;;;;;;5085011;28;20078;-31
2022/09/07 06:32:36;;;;;;;8.25;3.65;;;17.30;99.90;;;;;;5084961;28;20028;-34
2022/09/07 06:35:02;;;;;;;5.22;3.20;;;17.40;99.90;;;;;;5083278;28;20036;-35
2022/09/07 06:37:28;;;;;;;9.63;4.15;;;17.50;99.90;;;;;;5084472;28;20038;-32
2022/09/07 06:39:54;;;;;;;6.43;3.80;;;17.50;99.90;;;;;;5084734;28;20040;-31
2022/09/07 06:42:19;;;;;;;9.18;3.60;;;17.60;99.90;;;;;;5084117;28;20498;-32
2022/09/07 06:44:45;;;;;;;6.07;3.72;;;17.70;99.90;;;;;;5058051;28;20031;-32
2022/09/07 06:47:11;;;;;;;7.72;3.78;;;17.80;99.90;;;;;;5084602;28;20036;-31
2022/09/07 06:49:36;;;;;;;5.57;3.40;;;17.90;99.90;;;;;;5083973;28;20473;-34
2022/09/07 06:52:02;;;;;;;4.97;3.33;;;17.90;99.90;;;;;;5084737;28;20032;-34
2022/09/07 06:54:28;;;;;;;7.65;4.10;;;18.00;99.90;;;;;;5080285;28;20511;-34
2022/09/07 06:56:54;;;;;;;5.00;3.50;;;18.00;99.90;;;;;;5074185;28;20610;-32
2022/09/07 06:59:20;;;;;;;6.18;3.60;;;18.10;99.90;;;;;;5046702;28;20031;-32
2022/09/07 07:01:45;;;;;;;6.35;3.95;;;18.20;99.90;;;;;;5074204;28;20421;-36
2022/09/07 07:04:12;;;;;;;6.70;3.63;;;18.30;99.90;;;;;;5078937;28;20036;-34
2022/09/07 07:06:38;;;;;;;6.10;3.50;;;18.40;99.90;;;;;;5080101;28;20040;-38
2022/09/07 07:09:06;;;;;;;7.07;3.67;;;18.50;99.90;;;;;;5059870;28;20031;-33
2022/09/07 07:11:35;;;;;;;7.82;4.00;;;18.50;99.90;;;;;;5082990;28;20572;-32
2022/09/07 07:14:01;;;;;;;6.57;3.90;;;18.70;99.90;;;;;;5077750;28;20036;-36
2022/09/07 07:16:27;;;;;;;5.90;3.85;;;18.70;99.90;;;;;;5080089;28;20389;-31
2022/09/07 07:18:56;;;;;;;6.22;3.72;;;18.70;99.90;;;;;;5082006;28;20035;-36
2022/09/07 07:21:22;;;;;;;5.70;3.67;;;18.80;99.90;;;;;;5074895;28;20122;-38
2022/09/07 07:23:52;;;;;;;3.72;3.15;;;19.00;99.90;;;;;;5080658;28;20143;-32
2022/09/07 07:26:20;;;;;;;4.95;3.38;;;19.10;99.90;;;;;;5079893;28;20064;-38
2022/09/07 07:28:48;;;;;;;5.70;3.38;;;19.20;99.90;;;;;;5078350;28;20046;-32
2022/09/07 07:31:16;;;;;;;4.68;3.90;;;19.20;99.90;;;;;;5058437;28;20063;-34
2022/09/07 07:33:42;;;;;;;4.95;3.63;;;19.20;99.90;;;;;;5056946;28;20096;-32
2022/09/07 07:36:09;;;;;;;5.53;3.80;;;19.10;99.90;;;;;;5082051;28;20037;-34
2022/09/07 07:38:35;;;;;;;4.90;3.22;;;19.20;99.90;;;;;;5063001;28;20053;-34
2022/09/07 07:41:01;;;;;;;4.88;3.38;;;19.20;99.90;;;;;;5081658;28;20485;-34
2022/09/07 07:43:26;;;;;;;4.97;3.50;;;19.40;99.90;;;;;;5076013;28;20032;-36
2022/09/07 07:45:54;;;;;;;5.13;3.28;;;19.40;99.90;;;;;;5073444;28;20036;-34
2022/09/07 07:48:20;;;;;;;7.68;3.60;;;19.40;99.90;;;;;;5058834;28;20105;-32
2022/09/07 07:51:00;;;;;;;4.95;3.17;;;19.60;99.90;;;;;;5060716;28;20495;-35
2022/09/07 07:53:26;;;;;;;4.35;3.33;;;19.70;99.90;;;;;;5081496;28;20034;-32
2022/09/07 07:55:52;;;;;;;6.53;3.53;;;19.90;99.90;;;;;;5060511;28;20497;-35
2022/09/07 07:58:18;;;;;;;7.57;3.40;;;20.10;99.90;;;;;;5078813;28;20073;-34
2022/09/07 08:00:44;;;;;;;5.18;3.45;;;20.10;99.90;;;;;;5080917;28;20040;-32
2022/09/07 08:03:10;;;;;;;4.80;3.28;;;20.30;99.90;;;;;;5082015;28;20055;-35
2022/09/07 08:05:36;;;;;;;4.18;3.25;;;20.30;99.90;;;;;;5080419;28;20133;-32
2022/09/07 08:08:02;;;;;;;4.90;3.03;;;20.10;99.90;;;;;;5081696;28;20036;-32
2022/09/07 08:10:29;;;;;;;3.97;3.47;;;19.90;99.90;;;;;;5078610;28;20412;-33
2022/09/07 08:12:55;;;;;;;6.53;3.13;;;19.90;99.90;;;;;;5081384;28;20028;-31
2022/09/07 08:15:21;;;;;;;4.70;3.22;;;19.90;99.90;;;;;;5081400;28;20465;-35
2022/09/07 08:17:48;;;;;;;3.00;2.70;;;20.00;99.90;;;;;;5081435;28;21963;-37
2022/09/07 08:20:14;;;;;;;4.45;3.13;;;20.10;99.90;;;;;;5081017;28;20034;-32
2022/09/07 08:22:41;;;;;;;4.18;2.92;;;20.10;99.90;;;;;;5077772;28;20028;-32
2022/09/07 08:25:07;;;;;;;4.47;2.90;;;20.10;99.90;;;;;;5079851;28;20039;-33
2022/09/07 08:27:33;;;;;;;5.38;3.00;;;20.10;99.90;;;;;;5080722;28;20089;-33
2022/09/07 08:29:59;;;;;;;8.52;3.22;;;20.00;99.90;;;;;;5081600;28;20124;-35
2022/09/07 08:32:25;;;;;;;3.55;2.70;;;20.10;99.90;;;;;;5078801;28;20114;-37
2022/09/07 08:34:51;;;;;;;6.88;3.30;;;20.00;99.90;;;;;;5079040;28;20497;-34
2022/09/07 08:37:17;;;;;;;5.47;3.10;;;20.00;99.90;;;;;;5078616;28;20035;-32
2022/09/07 08:39:43;;;;;;;4.45;2.78;;;20.00;99.90;;;;;;5078685;28;20040;-34
2022/09/07 08:42:22;;;;;;;4.53;2.72;;;20.00;99.90;;;;;;5077271;28;20032;-34
2022/09/07 08:44:55;;;;;;;3.83;2.83;;;20.00;99.90;;;;;;5080931;28;20385;-34
2022/09/07 08:47:43;;;;;;;4.00;2.30;;;20.10;99.90;;;;;;5078183;28;20111;-35
2022/09/07 08:50:23;;;;;;;4.47;2.70;;;20.10;99.90;;;;;;5078501;28;20089;-34
2022/09/07 08:53:13;;;;;;;3.80;2.42;;;20.30;99.90;;;;;;5077638;28;20477;-35
2022/09/07 08:56:04;;;;;;;5.88;2.45;;;20.40;99.90;;;;;;5069136;28;20032;-34
2022/09/07 08:58:42;;;;;;;4.93;2.70;;;20.50;99.90;;;;;;5078221;28;20019;-33
2022/09/07 09:01:12;;;;;;;5.95;2.70;;;20.70;99.90;;;;;;5078340;28;20075;-32
2022/09/07 09:03:38;;;;;;;4.20;2.50;;;20.90;99.90;;;;;;5079680;28;20550;-34
2022/09/07 09:06:19;;;;;;;3.08;2.38;;;20.90;99.90;;;;;;5079795;28;20054;-32
2022/09/07 09:09:05;;;;;;;3.40;2.22;;;21.20;99.90;;;;;;5076671;28;20052;-32
2022/09/07 09:11:46;;;;;;;2.33;2.13;;;21.50;99.90;;;;;;5076347;28;20024;-34
2022/09/07 09:14:21;;;;;;;3.85;2.45;;;21.80;99.90;;;;;;5077993;28;20028;-34
2022/09/07 09:16:52;;;;;;;2.97;2.47;;;21.80;99.90;;;;;;5080774;28;20035;-31
2022/09/07 09:19:38;;;;;;;4.65;2.38;;;21.90;99.90;;;;;;5076531;28;20480;-30
2022/09/07 09:22:09;;;;;;;3.08;1.90;;;22.10;99.90;;;;;;5077317;28;20063;-32
2022/09/07 09:24:39;;;;;;;2.40;1.80;;;22.30;99.90;;;;;;5074879;28;20115;-37
2022/09/07 09:27:05;;;;;;;5.53;2.25;;;22.50;99.90;;;;;;5078561;28;20027;-36
2022/09/07 09:29:32;;;;;;;5.30;2.15;;;22.70;99.90;;;;;;5055357;28;20469;-36
2022/09/07 09:31:57;;;;;;;2.60;1.80;;;23.00;99.90;;;;;;5071338;28;20477;-31
2022/09/07 09:34:23;;;;;;;4.38;2.40;;;23.10;99.90;;;;;;5079971;28;20036;-35
2022/09/07 09:36:53;;;;;;;5.72;2.20;;;22.90;99.90;;;;;;5078055;28;20036;-35
2022/09/07 09:39:35;;;;;;;7.43;2.17;;;23.00;99.90;;;;;;5078980;28;20389;-32
2022/09/07 09:42:14;;;;;;;2.38;1.65;;;23.00;99.90;;;;;;5075316;28;20031;-34
2022/09/07 09:44:41;;;;;;;4.20;2.10;;;22.90;99.90;;;;;;5073329;28;20036;-34
2022/09/07 09:47:28;;;;;;;3.30;2.08;;;23.10;99.90;;;;;;5075918;28;20056;-31
2022/09/07 09:49:55;;;;;;;5.32;2.10;;;23.20;99.90;;;;;;5087734;28;20024;-31
2022/09/07 09:52:22;;;;;;;6.68;1.92;;;23.40;99.90;;;;;;5080449;28;20020;-37
2022/09/07 09:54:52;;;;;;;3.05;1.73;;;23.20;99.90;;;;;;5085485;28;20060;-31
2022/09/07 09:57:57;;;;;;;3.58;2.00;;;23.40;99.90;;;;;;5082589;28;20086;-33
2022/09/07 10:00:25;;;;;;;2.97;1.70;;;23.20;99.90;;;;;;5079375;28;20732;-33
2022/09/07 10:03:24;;;;;;;2.95;1.83;;;23.10;99.90;;;;;;5079370;28;20044;-32
2022/09/07 10:05:50;;;;;;;3.42;1.90;;;23.00;99.90;;;;;;5082424;28;20043;-32
2022/09/07 10:08:22;;;;;;;4.30;2.03;;;23.00;99.90;;;;;;5082609;28;20020;-36
2022/09/07 10:10:58;;;;;;;3.47;1.80;;;23.00;99.90;;;;;;5079056;28;20438;-31
2022/09/07 10:13:28;;;;;;;3.38;2.00;;;22.90;99.90;;;;;;5083626;28;20158;-31
2022/09/07 10:15:56;;;;;;;4.55;1.83;;;22.90;99.90;;;;;;5059838;28;20036;-31
2022/09/07 10:18:39;;;;;;;2.80;1.90;;;22.90;99.90;;;;;;5084275;28;20027;-35
2022/09/07 10:21:19;;;;;;;2.83;1.70;;;23.10;99.90;;;;;;5081740;28;20101;-34
2022/09/07 10:23:45;;;;;;;3.60;1.80;;;23.40;99.90;;;;;;5079778;28;20036;-32
2022/09/07 10:26:32;;;;;;;3.22;1.80;;;23.60;99.90;;;;;;5083438;28;20040;-32
2022/09/07 10:29:27;;;;;;;3.33;1.85;;;23.90;99.90;;;;;;5082294;28;20024;-34
2022/09/07 10:32:12;;;;;;;3.78;1.95;;;23.80;99.90;;;;;;5075686;28;20036;-31
2022/09/07 10:34:47;;;;;;;3.85;2.28;;;23.70;99.90;;;;;;5085487;28;20111;-34
2022/09/07 10:37:43;;;;;;;2.60;1.75;;;23.70;99.90;;;;;;5079953;28;20032;-35
2022/09/07 10:40:19;;;;;;;3.97;2.10;;;23.90;99.90;;;;;;5071110;28;20051;-32
2022/09/07 10:43:01;;;;;;;3.33;1.80;;;24.30;99.90;;;;;;5082005;28;20031;-31
2022/09/07 10:45:56;;;;;;;3.80;1.80;;;24.40;99.50;;;;;;5081256;28;20486;-32
2022/09/07 10:48:58;;;;;;;3.83;1.80;;;24.20;98.10;;;;;;5082942;28;20098;-31
2022/09/07 10:51:39;;;;;;;1.83;1.70;;;24.10;97.40;;;;;;5083049;28;20024;-34
2022/09/07 10:54:07;;;;;;;3.38;1.92;;;24.00;99.20;;;;;;5081197;28;20081;-32
2022/09/07 10:56:45;;;;;;;4.68;1.98;;;24.30;99.30;;;;;;5083240;28;20031;-32
2022/09/07 10:59:44;;;;;;;4.75;1.90;;;24.30;96.70;;;;;;5080987;28;20028;-31
2022/09/07 11:02:24;;;;;;;4.93;1.90;;;24.60;98.80;;;;;;5082627;28;20036;-32
2022/09/07 11:05:37;;;;;;;4.00;1.50;;;24.40;95.50;;;;;;5080110;28;20416;-37
2022/09/07 11:08:16;;;;;;;3.85;1.98;;;24.40;96.70;;;;;;5061926;28;20113;-33
2022/09/07 11:11:13;;;;;;;3.15;1.80;;;24.70;97.20;;;;;;5080657;28;20028;-37
2022/09/07 11:13:43;;;;;;;3.05;1.55;;;24.70;97.40;;;;;;5081386;28;20050;-31
2022/09/07 11:16:23;;;;;;;3.28;1.80;;;24.60;92.10;;;;;;5079643;28;20024;-37
2022/09/07 11:19:03;;;;;;;3.78;1.70;;;24.50;93.70;;;;;;5080073;28;20023;-33
2022/09/07 11:21:55;;;;;;;5.72;1.85;;;24.70;96.20;;;;;;5082597;28;20020;-32
2022/09/07 11:24:35;;;;;;;4.30;1.95;;;24.90;95.40;;;;;;5081908;28;20077;-34
2022/09/07 11:27:17;;;;;;;2.15;1.70;;;24.90;94.50;;;;;;5082747;28;20020;-37
2022/09/07 11:30:02;;;;;;;4.20;1.90;;;25.00;93.90;;;;;;5082336;28;20451;-34
2022/09/07 11:32:33;;;;;;;2.92;1.83;;;25.00;93.90;;;;;;5079694;28;20416;-34
2022/09/07 11:35:05;;;;;;;5.32;2.08;;;24.90;93.50;;;;;;5081434;28;20496;-31
2022/09/07 11:37:58;;;;;;;3.75;1.65;;;25.00;94.10;;;;;;5083083;28;20024;-35
2022/09/07 11:40:26;;;;;;;2.05;1.65;;;25.00;94.10;;;;;;5073627;28;20040;-31
2022/09/07 11:42:59;;;;;;;3.75;2.10;;;25.10;93.50;;;;;;5080732;28;20032;-37
2022/09/07 11:45:33;;;;;;;2.67;1.90;;;25.00;91.80;;;;;;5078395;28;20485;-33
2022/09/07 11:48:06;;;;;;;4.45;1.70;;;25.20;93.10;;;;;;5081918;28;20075;-32
2022/09/07 11:50:35;;;;;;;4.60;1.95;;;25.00;93.30;;;;;;5060166;28;20094;-31
2022/09/07 11:53:20;;;;;;;3.40;1.73;;;25.20;93.50;;;;;;5083861;28;20477;-35
2022/09/07 11:55:54;;;;;;;4.82;2.00;;;25.40;95.90;;;;;;5080580;28;20500;-32
2022/09/07 11:58:39;;;;;;;3.40;1.80;;;25.40;92.90;;;;;;5079914;28;20047;-36
2022/09/07 12:01:20;;;;;;;4.53;1.77;;;25.50;92.10;;;;;;5074408;28;20128;-32
2022/09/07 12:03:54;;;;;;;5.03;1.90;;;25.60;93.10;;;;;;5077517;28;20032;-31
2022/09/07 12:06:37;;;;;;;2.08;1.70;;;25.30;88.90;;;;;;5081274;28;20036;-31
2022/09/07 12:09:34;;;;;;;6.85;1.80;;;25.50;90.00;;;;;;5081040;28;20040;-33
2022/09/07 12:12:09;;;;;;;;;;;25.50;92.10;;;;;;5081175;28;20023;-32
2022/09/07 12:14:50;;;;;;;2.80;1.80;;;25.40;83.50;;;;;;5079567;28;19915;-35
2022/09/07 12:17:37;;;;;;;2.80;1.60;;;25.20;85.60;;;;;;5078771;28;20036;-35
2022/09/07 12:20:20;;;;;;;4.20;2.10;;;25.20;87.50;;;;;;5080709;28;20040;-32
2022/09/07 12:23:03;;;;;;;3.17;2.10;;;25.30;90.70;;;;;;5077963;28;20065;-33
2022/09/07 12:25:30;;;;;;;4.47;2.00;;;25.20;87.60;;;;;;5080224;28;20611;-32
2022/09/07 12:27:56;;;;;;;2.37;2.07;;;25.10;90.70;;;;;;5081063;28;20032;-33
2022/09/07 12:30:22;;;;;;;3.90;1.90;;;25.00;89.80;;;;;;5078904;28;20146;-34
2022/09/07 12:32:49;;;;;;;3.05;1.63;;;24.90;91.00;;;;;;5082627;28;20012;-32
2022/09/07 12:35:32;;;;;;;5.80;2.00;;;24.90;93.20;;;;;;5077793;28;20465;-36
2022/09/07 12:38:04;;;;;;;4.00;1.88;;;24.80;89.00;;;;;;5078371;28;20705;-32
2022/09/07 12:40:31;;;;;;;2.78;1.55;;;24.90;93.40;;;;;;5076805;28;20036;-34
2022/09/07 12:43:15;;;;;;;2.80;1.92;;;25.10;90.40;;;;;;5081125;28;20481;-34
2022/09/07 12:45:43;;;;;;;4.47;1.70;;;25.20;93.50;;;;;;5077803;28;20025;-32
2022/09/07 12:48:14;;;;;;;2.63;1.90;;;25.30;90.20;;;;;;5078146;28;20020;-32
2022/09/07 12:50:52;;;;;;;2.65;1.73;;;25.30;90.40;;;;;;5077453;28;20064;-31
2022/09/07 12:53:23;;;;;;;2.10;1.80;;;25.50;84.60;;;;;;5081201;28;20456;-32
2022/09/07 12:56:15;;;;;;;3.88;1.70;;;25.30;82.10;;;;;;5076760;28;20118;-36
2022/09/07 12:59:00;;;;;;;4.45;2.10;;;25.10;87.00;;;;;;5077305;28;20048;-35
2022/09/07 13:02:04;;;;;;;4.40;1.70;;;25.10;90.00;;;;;;5078259;28;20056;-34
2022/09/07 13:05:01;;;;;;;2.38;1.77;;;25.40;92.80;;;;;;5079405;28;20165;-32
2022/09/07 13:07:46;;;;;;;5.15;2.00;;;25.60;91.60;;;;;;5079922;28;20056;-32
2022/09/07 13:10:30;;;;;;;3.60;1.70;;;25.70;89.90;;;;;;5080141;28;20035;-31
2022/09/07 13:13:14;;;;;;;5.28;1.90;;;26.00;82.70;;;;;;5078722;28;20028;-39
2022/09/07 13:16:12;;;;;;;4.90;1.90;;;26.10;83.10;;;;;;5075356;28;20024;-34
2022/09/07 13:18:40;;;;;;;1.85;1.50;;;26.20;84.80;;;;;;5073314;28;20410;-32
2022/09/07 13:21:06;;;;;;;3.50;1.63;;;26.30;79.90;;;;;;5079710;28;20117;-32
2022/09/07 13:23:35;;;;;;;4.35;1.80;;;26.20;75.20;;;;;;5082642;28;20399;-32
2022/09/07 13:26:04;;;;;;;2.60;1.70;;;26.20;79.90;;;;;;5082938;28;20427;-36
2022/09/07 13:28:38;;;;;;;3.67;1.80;;;26.20;75.20;;;;;;5082906;28;20122;-34
2022/09/07 13:31:21;;;;;;;4.70;1.92;;;26.20;80.10;;;;;;5080874;28;21907;-35
2022/09/07 13:33:51;;;;;;;2.47;1.55;;;26.30;78.10;;;;;;5083779;28;20405;-32
2022/09/07 13:36:22;;;;;;;1.90;1.70;;;26.10;74.60;;;;;;5083559;28;20110;-31
2022/09/07 13:38:50;;;;;;;5.63;2.00;;;26.20;80.10;;;;;;5082424;28;20036;-31
2022/09/07 13:41:20;;;;;;;3.95;1.88;;;26.30;78.30;;;;;;5065657;28;20048;-34
2022/09/07 13:43:51;;;;;;;3.53;1.80;;;26.40;79.90;;;;;;5080651;28;20113;-31
2022/09/07 13:46:51;;;;;;;6.65;2.05;;;26.20;80.90;;;;;;5085160;28;20455;-31
2022/09/07 13:49:22;;;;;;;4.13;1.77;;;26.10;85.80;;;;;;5086276;28;20350;-31
2022/09/07 13:51:57;;;;;;;4.05;1.80;;;26.20;85.00;;;;;;5083779;28;20041;-35
2022/09/07 13:54:53;;;;;;;3.88;1.88;;;26.10;80.30;;;;;;5084468;28;20036;-33
2022/09/07 13:57:32;;;;;;;2.33;2.00;;;25.90;75.60;;;;;;5086225;28;20044;-32
2022/09/07 13:59:58;;;;;;;4.72;1.77;;;25.90;78.50;;;;;;5083884;28;20028;-35
2022/09/07 14:02:27;;;;;;;2.90;1.60;;;25.90;75.40;;;;;;5075696;28;20112;-32
2022/09/07 14:04:55;;;;;;;5.60;2.10;;;25.80;71.40;;;;;;5079913;28;20382;-33
2022/09/07 14:07:26;;;;;;;3.97;2.17;;;25.70;79.00;;;;;;5081111;28;20032;-33
2022/09/07 14:10:05;;;;;;;5.22;1.95;;;25.80;79.70;;;;;;5083794;28;20092;-33
2022/09/07 14:12:30;;;;;;;4.07;1.88;;;25.70;74.20;;;;;;5082868;28;20562;-32
2022/09/07 14:15:20;;;;;;;5.35;1.83;;;25.70;80.00;;;;;;5065023;28;20028;-31
2022/09/07 14:17:47;;;;;;;4.03;1.88;;;25.70;81.70;;;;;;5076271;28;20034;-33
2022/09/07 14:20:15;;;;;;;2.33;1.98;;;25.70;78.70;;;;;;5085684;28;20040;-34
2022/09/07 14:22:41;;;;;;;3.38;1.90;;;25.70;72.30;;;;;;5080781;28;20169;-32
2022/09/07 14:25:16;;;;;;;2.95;1.75;;;25.80;78.70;;;;;;5070956;28;20036;-33
2022/09/07 14:27:44;;;;;;;4.90;2.00;;;25.70;75.70;;;;;;5077896;28;20552;-31